logo
App data

Invention

3D first-person shooter with RPG elements. Actions in the game take place on a mysterious island within a secret laboratory...
Store | Hub | SteamDB
Developer: Falcoware Publisher: Flynn's Arcade
Genre: Action, Indie
Languages: English, Russian
Tags: Action (49), Indie (28), Zombies (12), FPS (9), Gore (6)
Category: Single-player
Release date: Jan 11, 2017
Price: $0.99
Old userscore: 74% Owners: 100,000 .. 200,000
Followers: 412
Peak concurrent players yesterday: 2
YouTube stats: 50,856 views and 244 comments for videos uploaded last week, 1 new videos uploaded yesterday.
Playtime total: 04:36 (average) 04:56 (median)

Steam Spy is still in beta, so expect major bugs.

Owners data:

Access restricted.

This feature is only available to users with special access rights. Sorry.

If you want to proceed, you need to register or log in first and then back Steam Spy on Patreon. Look for Indie or Pro pledge.

Don't forget to use the same email as on Steam Spy!

Audience in 2 weeks:

Access restricted.

This feature is only available to users with special access rights. Sorry.

If you want to proceed, you need to register or log in first and then back Steam Spy on Patreon. Look for Indie or Pro pledge.

Don't forget to use the same email as on Steam Spy!

Peak daily concurrent players:

CCU data courtesy of SteamDB. Used with permission.

Hourly concurrent players:

YouTube:

The views data is based on top 50 videos uploaded last week. Actual number of views might be more than the number shown.

The displayed number of videos uploaded yesterday is limited to 50, so if there were more videos uploaded, the number will still show 50.

If the game has commonly used word as its name (like "FEAR" or "Volume") its number of Youtube views might be wrong.

Games similar to this one:

# Game Release date
Price
Score rank
(Userscore / Metascore)
Owners
Players
Playtime (Median)
1 SMITE Sep 8, 2015 FreeN/A (N/A/83%)10,000,000 .. 20,000,0003%28:53 (16:34)
2 Dead Effect 2 May 6, 2016 $11.99N/A (N/A/53%)100,000 .. 200,0000%00:00 (00:00)
3 Spakoyno: Back to the USSR 2.0 Feb 15, 2016 $3.99N/A (N/A)200,000 .. 500,0000%00:00 (00:00)
4 Ben and Ed Dec 8, 2015 $9.99N/A (N/A)100,000 .. 200,0000%00:00 (00:00)
5 Day of the Tentacle Remastered Mar 21, 2016 $14.99N/A (N/A/86%)200,000 .. 500,0000%00:00 (00:00)
6 Heaven Island - VR MMO Dec 23, 2015 $0.99N/A (N/A)500,000 .. 1,000,0003.51%06:56 (04:37)
7 Darksiders II Deathinitive Edition Nov 5, 2015 $29.99N/A (N/A)1,000,000 .. 2,000,0002.78%03:06 (03:05)
8 VERGE:Lost chapter Oct 1, 2015 $4.99N/A (N/A)100,000 .. 200,0000%00:00 (00:00)
9 Azure Striker Gunvolt Aug 28, 2015 $14.99N/A (N/A)50,000 .. 100,0000%00:00 (00:00)
10 Firewatch Feb 9, 2016 $19.99N/A (N/A/81%)1,000,000 .. 2,000,0004.35%01:11 (00:47)
11 DESYNC Feb 28, 2017 $14.99N/A (N/A/69%)20,000 .. 50,0000%00:00 (00:00)
12 NECROPOLIS: BRUTAL EDITION Jul 2016 $7.49N/A (N/A)200,000 .. 500,0000%00:00 (00:00)
13 Rise of the Tomb Raider Feb 9, 2016 $59.99N/A (N/A/86%)2,000,000 .. 5,000,0006.32%00:59 (00:25)
14 Planetary Annihilation: TITANS Aug 18, 2015 $39.99N/A (N/A)500,000 .. 1,000,0000%00:00 (00:00)
15 Endless Space 2 May 18, 2017 $39.99N/A (N/A)1,000,000 .. 2,000,0003.23%01:34 (00:31)
16 Crossout Jul 26, 2017 FreeN/A (N/A)2,000,000 .. 5,000,0002.96%34:31 (66:26)
17 Hearts of Iron IV Jun 6, 2016 $15.99N/A (N/A/83%)1,000,000 .. 2,000,00021.51%07:43 (06:04)
18 Killer is Dead - Nightmare Edition May 23, 2014 $19.99N/A (N/A)1,000,000 .. 2,000,0000%00:00 (00:00)
19 Offworld Trading Company Apr 28, 2016 $19.99N/A (N/A/78%)500,000 .. 1,000,0000%00:00 (00:00)
20 Dungeons 2 Apr 24, 2015 $19.99N/A (N/A/70%)1,000,000 .. 2,000,0000%00:00 (00:00)
21 Evolve Stage 2 Feb 10, 2015 N/AN/A (N/A/77%)5,000,000 .. 10,000,0000.4%00:24 (00:08)
22 Crimsonland Jun 11, 2014 $13.99N/A (N/A/68%)100,000 .. 200,0000%00:00 (00:00)
23 Brigador: Up-Armored Edition Jun 2, 2016 $19.99N/A (N/A/70%)200,000 .. 500,0000%00:00 (00:00)
24 Blockstorm May 21, 2015 $4.99N/A (N/A)500,000 .. 1,000,0000%00:00 (00:00)
25 Depth Nov 3, 2014 $19.99N/A (N/A/65%)1,000,000 .. 2,000,0000%00:00 (00:00)
26 One Finger Death Punch Mar 3, 2014 $4.99N/A (N/A)500,000 .. 1,000,0000%00:00 (00:00)
27 Death Road to Canada Jul 21, 2016 $14.99N/A (N/A)200,000 .. 500,0000%00:00 (00:00)
28 Age of Mythology: Extended Edition May 8, 2014 $29.99N/A (N/A/66%)1,000,000 .. 2,000,0000%00:00 (00:00)
29 Abyss Odyssey Jul 15, 2014 $14.99N/A (N/A/69%)200,000 .. 500,0000%00:00 (00:00)
30 Panzer Corps Mar 12, 2014 $19.99N/A (N/A/80%)100,000 .. 200,0000%00:00 (00:00)
31 Max: The Curse of Brotherhood May 21, 2014 $14.99N/A (N/A)50,000 .. 100,0000%00:00 (00:00)
32 XCOM 2 Feb 4, 2016 $59.99N/A (N/A/88%)1,000,000 .. 2,000,0003.66%08:12 (07:48)
33 Enemy Front Jun 10, 2014 $19.99N/A (N/A/52%)200,000 .. 500,0000%00:00 (00:00)
34 RUNNING WITH RIFLES Apr 2, 2015 $14.99N/A (N/A/78%)200,000 .. 500,0000%00:00 (00:00)
35 Darksiders Sep 23, 2010 N/AN/A (N/A/83%)2,000,000 .. 5,000,0000%00:00 (00:00)
36 Call of Duty: Black Ops Nov 9, 2010 $39.99N/A (N/A/81%)500,000 .. 1,000,0001.28%00:19 (00:06)
37 Homefront Mar 14, 2011 $19.99N/A (N/A/70%)2,000,000 .. 5,000,0000%00:00 (00:00)
38 Devil May Cry 4 Dec 22, 2009 $19.99N/A (N/A/78%)200,000 .. 500,0000%00:00 (00:00)
39 Broken Sword: Director's Cut Sep 2, 2010 $5.99N/A (N/A)100,000 .. 200,0000%00:00 (00:00)
40 Syberia II Mar 30, 2004 $12.99N/A (N/A/80%)500,000 .. 1,000,0000%00:00 (00:00)
41 Blood Bowl - Legendary Edition Oct 28, 2010 $2.49N/A (N/A/73%)200,000 .. 500,0000%00:00 (00:00)
42 Stronghold 3 Gold May 25, 2012 $5.99N/A (N/A)500,000 .. 1,000,0000%00:00 (00:00)
43 Supreme Commander 2 Mar 1, 2010 $12.99N/A (N/A/77%)1,000,000 .. 2,000,0000%00:00 (00:00)
44 Assassin’s Creed Brotherhood Mar 22, 2011 $6.79N/A (N/A/88%)1,000,000 .. 2,000,0000%00:00 (00:00)
45 Stronghold HD Oct 21, 2013 $1.49N/A (N/A/81%)1,000,000 .. 2,000,0000%00:00 (00:00)
46 Might & Magic: Heroes VI Oct 13, 2011 $19.99N/A (N/A/77%)500,000 .. 1,000,0000%00:00 (00:00)
47 Stronghold 2: Steam Edition $7.49N/A (N/A)0 .. 20,0000%00:00 (00:00)
48 Anno 2070 Nov 17, 2011 $19.99N/A (N/A/83%)500,000 .. 1,000,0000%00:00 (00:00)
49 Stronghold Crusader HD Oct 21, 2013 $1.99N/A (N/A/78%)2,000,000 .. 5,000,0001.96%04:03 (01:21)
50 Mafia II Mar 22, 2011 $29.99N/A (N/A/77%)2,000,000 .. 5,000,0002.17%00:08 (00:05)
51 Stronghold Legends: Steam Edition Oct 27, 2009 $4.94N/A (N/A)500,000 .. 1,000,0000%00:00 (00:00)
52 Princess.Loot.Pixel.Again Apr 15, 2016 $3.99N/A (N/A)200,000 .. 500,0000%00:00 (00:00)
53 The Walking Dead: Michonne - A Telltale Miniseries Feb 23, 2016 N/AN/A (N/A)200,000 .. 500,0000%00:00 (00:00)
54 CLASH Nov 15, 2016 FreeN/A (N/A)100,000 .. 200,0000%00:00 (00:00)
55 Masked Shooters 2 Jan 14, 2016 $0.99N/A (N/A)200,000 .. 500,0000%00:00 (00:00)
56 RWBY: Grimm Eclipse Jul 5, 2016 $19.99N/A (N/A)200,000 .. 500,0000%00:00 (00:00)
57 Lost Castle / 失落城堡 Aug 31, 2016 $9.99N/A (N/A)1,000,000 .. 2,000,0000%00:00 (00:00)
58 Swiftly Jan 26, 2016 $0.99N/A (N/A)100,000 .. 200,0000%00:00 (00:00)
59 Rock 'N' Roll Defense Aug 10, 2016 $0.99N/A (N/A)200,000 .. 500,0007.14%00:01 (00:00)
60 River City Ransom: Underground Feb 27, 2017 $19.99N/A (N/A)50,000 .. 100,0000%00:00 (00:00)
61 BioShock 2 Remastered Sep 15, 2016 $19.99N/A (N/A)1,000,000 .. 2,000,0000%00:00 (00:00)
62 Particle Fleet: Emergence Sep 29, 2016 $14.99N/A (N/A)20,000 .. 50,0000%00:00 (00:00)
63 EARTH DEFENSE FORCE 4.1 The Shadow of New Despair Jul 18, 2016 $19.99N/A (N/A/79%)500,000 .. 1,000,0003.23%00:16 (00:05)
64 Project Pulsation Dec 15, 2015 $4.99N/A (N/A)50,000 .. 100,0000%00:00 (00:00)
65 Forts Apr 19, 2017 $14.99N/A (N/A/74%)200,000 .. 500,0002.63%00:30 (00:10)
66 Grow Up Aug 16, 2016 $9.99N/A (N/A/71%)100,000 .. 200,0000%00:00 (00:00)
67 Midsummer Night Jun 17, 2016 $3.99N/A (N/A)100,000 .. 200,0000%00:00 (00:00)
68 8-Bit Armies Apr 22, 2016 $14.99N/A (N/A/69%)100,000 .. 200,0000%00:00 (00:00)
69 SuperPower 2 Steam Edition Apr 18, 2014 $9.99N/A (N/A)100,000 .. 200,0000%00:00 (00:00)
70 Deponia: The Complete Journey Jul 8, 2014 $29.99N/A (N/A)1,000,000 .. 2,000,0000%00:00 (00:00)
71 Enigmatis: The Ghosts of Maple Creek Oct 16, 2014 $9.99N/A (N/A)100,000 .. 200,00011.11%01:34 (00:31)
72 Renowned Explorers: International Society Sep 2, 2015 $19.99N/A (N/A)200,000 .. 500,0000%00:00 (00:00)
73 Solarix Apr 30, 2015 $19.99N/A (N/A)100,000 .. 200,0000%00:00 (00:00)
74 Heroes of Might & Magic III - HD Edition Jan 29, 2015 $14.99N/A (N/A/65%)500,000 .. 1,000,0000%00:00 (00:00)
75 Rise of Nations: Extended Edition Jun 12, 2014 $19.99N/A (N/A/89%)500,000 .. 1,000,0003.57%00:04 (00:01)
76 Close Combat - Gateway to Caen Jun 6, 2014 $39.99N/A (N/A)20,000 .. 50,0000%00:00 (00:00)
77 Mini Metro Nov 6, 2015 $9.99N/A (N/A/77%)500,000 .. 1,000,0002.33%02:38 (00:52)
78 A Story About My Uncle May 28, 2014 $12.99N/A (N/A/73%)5,000,000 .. 10,000,0000.58%04:12 (02:47)
79 Sid Meier’s Civilization VI Oct 20, 2016 $17.99N/A (N/A/88%)2,000,000 .. 5,000,0008.05%06:54 (05:14)
80 Homeworld: Deserts of Kharak Jan 20, 2016 $49.99N/A (N/A/79%)200,000 .. 500,0000%00:00 (00:00)
81 Endless Legend Sep 18, 2014 $29.99N/A (N/A/82%)1,000,000 .. 2,000,0003.92%01:25 (00:56)
82 Splatter - Zombie Apocalypse Jun 4, 2014 $0.99N/A (N/A)200,000 .. 500,0000%00:00 (00:00)
83 LARA CROFT AND THE TEMPLE OF OSIRIS Dec 8, 2014 $19.99N/A (N/A/73%)200,000 .. 500,0000%00:00 (00:00)
84 Sid Meier's Starships Mar 12, 2015 $14.99N/A (N/A/64%)200,000 .. 500,0000%00:00 (00:00)
85 Call of Duty: Infinite Warfare Nov 3, 2016 $59.99N/A (N/A/73%)200,000 .. 500,0000%00:00 (00:00)
86 Galactic Civilizations II: Ultimate Edition Dec 2, 2011 $19.99N/A (N/A/92%)500,000 .. 1,000,0000%00:00 (00:00)
87 Darkest Hour: A Hearts of Iron Game Apr 8, 2011 $2.49N/A (N/A/81%)200,000 .. 500,0000%00:00 (00:00)
88 Call of Duty: Black Ops II Nov 12, 2012 $59.99N/A (N/A/74%)2,000,000 .. 5,000,0002.59%00:46 (00:46)
89 Age of Empires III: Complete Collection Jan 5, 2012 $39.99N/A (N/A/81%)2,000,000 .. 5,000,0001.32%00:17 (00:05)
90 Tomb Raider Mar 4, 2013 $19.99N/A (N/A/86%)5,000,000 .. 10,000,0002.61%02:46 (01:53)
91 Alan Wake Feb 16, 2012 $14.99N/A (N/A/83%)2,000,000 .. 5,000,0000%00:00 (00:00)
92 Max Payne 3 May 31, 2012 $19.99N/A (N/A/87%)1,000,000 .. 2,000,0000%00:00 (00:00)
93 Crysis 2 - Maximum Edition Mar 22, 2011 $29.99N/A (N/A)2,000,000 .. 5,000,0000%00:00 (00:00)
94 Wargame: European Escalation Feb 22, 2012 $9.99N/A (N/A/81%)500,000 .. 1,000,0000%00:00 (00:00)
95 Prototype 2 Jul 24, 2012 $39.99N/A (N/A/76%)500,000 .. 1,000,0000%00:00 (00:00)
96 Might & Magic: Clash of Heroes Sep 22, 2011 $9.99N/A (N/A/76%)200,000 .. 500,0000%00:00 (00:00)
97 Worms Revolution Oct 10, 2012 $2.99N/A (N/A/73%)1,000,000 .. 2,000,0000%00:00 (00:00)
98 Men of War: Assault Squad Feb 24, 2011 $9.99N/A (N/A/77%)500,000 .. 1,000,0000%00:00 (00:00)
99 Batman: Arkham City - Game of the Year Edition Sep 7, 2012 $19.99N/A (N/A/91%)2,000,000 .. 5,000,0001.83%00:40 (00:27)
100 The Bureau: XCOM Declassified Aug 19, 2013 $19.99N/A (N/A/66%)2,000,000 .. 5,000,0000%00:00 (00:00)
101 Assassin's Creed Revelations Nov 29, 2011 $7.99N/A (N/A/80%)500,000 .. 1,000,0001.89%00:17 (00:05)
102 Sid Meier's Civilization: Beyond Earth Oct 23, 2014 $9.99N/A (N/A/81%)1,000,000 .. 2,000,0000%00:00 (00:00)
103 Farnham Fables Jun 20, 2016 $0.99N/A (N/A)100,000 .. 200,0000%00:00 (00:00)
104 ! That Bastard Is Trying To Steal Our Gold ! Mar 3, 2016 $3.99N/A (N/A)100,000 .. 200,0000%00:00 (00:00)
105 Hiiro Jul 12, 2016 $2.99N/A (N/A)100,000 .. 200,0000%00:00 (00:00)
106 Madness Cubed May 12, 2016 $1.99N/A (N/A)100,000 .. 200,0000%00:00 (00:00)
107 Crime Secrets: Crimson Lily Jul 14, 2016 $9.99N/A (N/A)20,000 .. 50,0000%00:00 (00:00)
108 Cyber City 2157: The Visual Novel May 4, 2016 $4.99N/A (N/A)200,000 .. 500,0000%00:00 (00:00)
109 PixBit May 21, 2016 $3.99N/A (N/A)20,000 .. 50,0000%00:00 (00:00)
110 Halo Wars: Definitive Edition Apr 20, 2017 $19.99N/A (N/A)200,000 .. 500,0000%00:00 (00:00)
111 Z.I.O.N. May 7, 2016 $4.99N/A (N/A)50,000 .. 100,0000%00:00 (00:00)
112 Bayonetta Apr 11, 2017 $19.99N/A (N/A/90%)500,000 .. 1,000,0001.49%06:47 (02:15)
113 This Is the Police Aug 2, 2016 $14.99N/A (N/A)500,000 .. 1,000,0006.9%00:56 (00:29)
114 Iron Impact May 27, 2016 $3.99N/A (N/A)20,000 .. 50,0000%00:00 (00:00)
115 Might and Magic: Heroes VII – Trial by Fire Aug 4, 2016 $29.99N/A (N/A)20,000 .. 50,0000%00:00 (00:00)
116 Dungetris Jan 25, 2017 $3.99N/A (N/A)500,000 .. 1,000,0000%00:00 (00:00)
117 Zombie Training Simulator Apr 15, 2016 $19.99N/A (N/A)100,000 .. 200,0000%00:00 (00:00)
118 Darksiders Warmastered Edition Nov 29, 2016 $19.99N/A (N/A)1,000,000 .. 2,000,0000%00:00 (00:00)
119 Case #8 Mar 9, 2016 $3.99N/A (N/A)100,000 .. 200,0000%00:00 (00:00)
120 Obduction Aug 24, 2016 $29.99N/A (N/A/76%)100,000 .. 200,0000%00:00 (00:00)
121 SteamWorld Heist Jun 7, 2016 $14.99N/A (N/A/81%)500,000 .. 1,000,0000%00:00 (00:00)
122 Grand Ages: Medieval Sep 25, 2015 $19.99N/A (N/A/63%)100,000 .. 200,0000%00:00 (00:00)
123 Gurumin: A Monstrous Adventure Mar 30, 2015 $9.99N/A (N/A)50,000 .. 100,0000%00:00 (00:00)
124 LEGO Pirates of the Caribbean: The Video Game May 24, 2011 $19.99N/A (N/A)100,000 .. 200,0000%00:00 (00:00)
125 DYNASTY WARRIORS 8 Empires Feb 26, 2015 $12.49N/A (N/A)50,000 .. 100,0000%00:00 (00:00)
126 Starion Tactics Sep 5, 2014 $9.99N/A (N/A)50,000 .. 100,0000%00:00 (00:00)
127 Tharsis Jan 11, 2016 $14.99N/A (N/A/61%)100,000 .. 200,0000%00:00 (00:00)
128 Blitzkrieg 2 Anthology Sep 16, 2014 $4.99N/A (N/A/75%)200,000 .. 500,0000%00:00 (00:00)
129 Master of Orion Feb 26, 2016 $29.99N/A (N/A/74%)200,000 .. 500,0000%00:00 (00:00)
130 Rampage Knights Sep 4, 2015 $11.99N/A (N/A/80%)200,000 .. 500,0000%00:00 (00:00)
131 GET EVEN Jun 20, 2017 $29.99N/A (N/A/75%)20,000 .. 50,0000%00:00 (00:00)
132 Grim Fandango Remastered Jan 26, 2015 $14.99N/A (N/A/84%)500,000 .. 1,000,0000%00:00 (00:00)
133 Saints Row: Gat out of Hell Jan 20, 2015 $14.99N/A (N/A/66%)500,000 .. 1,000,0000%00:00 (00:00)
134 Chaos Reborn Oct 26, 2015 $9.99N/A (N/A/85%)50,000 .. 100,0000%00:00 (00:00)
135 Ultimate General: Gettysburg Oct 16, 2014 $14.99N/A (N/A/84%)200,000 .. 500,0000%00:00 (00:00)
136 Trine 3: The Artifacts of Power Aug 20, 2015 $21.99N/A (N/A)500,000 .. 1,000,0000%00:00 (00:00)
137 DmC: Devil May Cry Jan 24, 2013 $29.99N/A (N/A/85%)1,000,000 .. 2,000,0001.25%01:12 (00:24)
138 Batman: Arkham Origins Oct 24, 2013 $19.99N/A (N/A/74%)2,000,000 .. 5,000,0000%00:00 (00:00)
139 Chaos on Deponia Nov 6, 2012 $12.99N/A (N/A/78%)200,000 .. 500,0002.56%01:56 (00:38)
140 Resident Evil: Operation Raccoon City May 18, 2012 $29.99N/A (N/A/48%)100,000 .. 200,0000%00:00 (00:00)
141 Resident Evil 6 / Biohazard 6 Mar 22, 2013 $29.99N/A (N/A/69%)1,000,000 .. 2,000,0004.76%00:56 (01:04)
142 Sonic Adventure 2 Nov 19, 2012 $2.49N/A (N/A)500,000 .. 1,000,0000%00:00 (00:00)
143 Age of Empires II (2013) Apr 9, 2013 $19.99N/A (N/A/68%)5,000,000 .. 10,000,0001.3%14:43 (09:48)
144 Minimum Sep 10, 2014 N/AN/A (N/A/69%)200,000 .. 500,0000%00:00 (00:00)
145 Infested Planet Mar 6, 2014 $14.99N/A (N/A/75%)200,000 .. 500,0000%00:00 (00:00)
146 Deponia Aug 6, 2012 $0.99N/A (N/A/74%)1,000,000 .. 2,000,0001.39%00:03 (00:01)
147 Sins of a Solar Empire: Rebellion Jun 12, 2012 $11.24N/A (N/A/82%)2,000,000 .. 5,000,0000.29%07:03 (02:21)
148 Total War: ROME II - Emperor Edition Sep 2, 2013 $59.99N/A (N/A/76%)2,000,000 .. 5,000,0002.5%03:31 (02:20)
149 Port Royale 3 May 4, 2012 $14.99N/A (N/A)200,000 .. 500,0000%00:00 (00:00)
150 PlanetSide 2 Nov 20, 2012 FreeN/A (N/A/84%)5,000,000 .. 10,000,0001.09%17:23 (11:34)
151 Endless Space - Collection Jul 4, 2012 $9.99N/A (N/A/77%)1,000,000 .. 2,000,0001.36%08:25 (05:36)
152 Mercenary Kings: Reloaded Edition Mar 25, 2014 $19.99N/A (N/A/76%)200,000 .. 500,0000%00:00 (00:00)
153 Assassin’s Creed III Nov 20, 2012 N/AN/A (N/A/80%)1,000,000 .. 2,000,0000%00:00 (00:00)
154 RiME May 26, 2017 $29.99N/A (N/A/78%)200,000 .. 500,0000%00:00 (00:00)
155 Sid Meier's Civilization IV Oct 25, 2005 $19.99N/A (N/A/94%)1,000,000 .. 2,000,0000%00:00 (00:00)
156 Killbot Jul 10, 2016 $0.99N/A (N/A)100,000 .. 200,0000%00:00 (00:00)
157 Star Trek Online Jan 31, 2012 FreeN/A (N/A/66%)1,000,000 .. 2,000,0001.35%00:07 (00:02)
158 Kingdom: New Lands Aug 9, 2016 $14.99N/A (N/A)500,000 .. 1,000,0000%00:00 (00:00)
159 Sid Meier's Civilization III Complete Oct 30, 2001 $4.99N/A (N/A/90%)1,000,000 .. 2,000,0000%00:00 (00:00)
160 Quantum Break Sep 29, 2016 $39.99N/A (N/A/66%)500,000 .. 1,000,0001.79%04:50 (01:36)
161 Prototype Jun 10, 2009 $19.99N/A (N/A/79%)500,000 .. 1,000,0003.57%00:11 (00:03)
162 Noob Squad Oct 5, 2016 $0.99N/A (N/A)20,000 .. 50,0000%00:00 (00:00)
163 Warhammer 40,000: Dawn of War - Game of the Year Edition Jan 1, 2006 $3.24N/A (N/A/86%)1,000,000 .. 2,000,0000%00:00 (00:00)
164 Strike Vector EX Jul 19, 2017 $11.99N/A (N/A)100,000 .. 200,0000%00:00 (00:00)
165 Call of Duty: Modern Warfare 2 Nov 11, 2009 $19.99N/A (N/A/86%)5,000,000 .. 10,000,0002.68%01:29 (01:29)
166 8-Bit Hordes Aug 12, 2016 $14.99N/A (N/A)20,000 .. 50,0000%00:00 (00:00)
167 Warhammer 40,000: Dawn of War - Dark Crusade Oct 9, 2006 $3.24N/A (N/A/87%)1,000,000 .. 2,000,0002.08%04:08 (01:22)
168 Yomawari: Night Alone Oct 25, 2016 $19.99N/A (N/A)50,000 .. 100,0000%00:00 (00:00)
169 Total War: EMPIRE – Definitive Edition Mar 4, 2009 $24.99N/A (N/A/90%)2,000,000 .. 5,000,0001.25%11:06 (03:42)
170 Warhammer 40,000: Sanctus Reach Jan 19, 2017 $8.99N/A (N/A/69%)20,000 .. 50,0000%00:00 (00:00)
171 Total War: MEDIEVAL II – Definitive Edition Nov 15, 2006 $24.99N/A (N/A)2,000,000 .. 5,000,0001.18%00:41 (00:13)
172 Mansions of Madness Aug 1, 2016 FreeN/A (N/A)100,000 .. 200,0000%00:00 (00:00)
173 Counter-Strike Nov 1, 2000 $9.99N/A (N/A/88%)20,000,000 .. 50,000,0004.62%06:38 (03:15)
174 Home Behind Jun 2, 2016 $5.99N/A (N/A)200,000 .. 500,0006.25%01:03 (00:21)
175 Rome: Total War - Collection Sep 22, 2004 $12.99N/A (N/A/92%)1,000,000 .. 2,000,0000%00:00 (00:00)
176 Radical Spectrum: Volume 1 Jul 8, 2016 $0.49N/A (N/A)100,000 .. 200,0000%00:00 (00:00)
177 Counter-Strike: Source Nov 1, 2004 $9.99N/A (N/A/88%)10,000,000 .. 20,000,0002.1%02:15 (02:21)
178 Impact Winter May 22, 2017 $19.99N/A (N/A/63%)0 .. 20,00020%00:06 (00:02)
179 Sid Meier's Railroads! Oct 16, 2006 $9.99N/A (N/A/77%)500,000 .. 1,000,0000%00:00 (00:00)
180 Take Thy Throne Jul 5, 2016 $1.99N/A (N/A)200,000 .. 500,0000%00:00 (00:00)
181 Earth 2160 Apr 1, 2006 $4.99N/A (N/A/73%)200,000 .. 500,0000%00:00 (00:00)
182 Super Mega Neo Pug May 11, 2016 $0.49N/A (N/A)100,000 .. 200,0000%00:00 (00:00)
183 Civilization IV: Beyond the Sword Jul 24, 2007 $9.99N/A (N/A/86%)1,000,000 .. 2,000,0000%00:00 (00:00)
184 Has-Been Heroes Mar 28, 2017 $19.99N/A (N/A/63%)0 .. 20,0000%00:00 (00:00)
185 Call of Duty 2 Oct 13, 2006 $19.99N/A (N/A/86%)200,000 .. 500,0000%00:00 (00:00)
186 Event[0] Sep 14, 2016 $19.99N/A (N/A/75%)100,000 .. 200,0000%00:00 (00:00)
187 Supreme Commander: Forged Alliance Sep 28, 2011 $12.99N/A (N/A/81%)1,000,000 .. 2,000,0004.62%01:50 (01:50)
188 Gems of War - Puzzle RPG Nov 20, 2014 FreeN/A (N/A)500,000 .. 1,000,0004%00:04 (00:01)
189 Hero of the Kingdom II Feb 20, 2015 $7.99N/A (N/A)100,000 .. 200,0000%00:00 (00:00)
190 Cossacks 3 Sep 20, 2016 $19.99N/A (N/A)500,000 .. 1,000,0000%00:00 (00:00)
191 Wolfenstein: The Old Blood May 4, 2015 $9.99N/A (N/A/76%)500,000 .. 1,000,0000%00:00 (00:00)
192 Town of Salem Dec 15, 2014 $4.99N/A (N/A)1,000,000 .. 2,000,0006.12%03:47 (03:46)
193 Cultures - Northland Mar 26, 2015 $0.79N/A (N/A)100,000 .. 200,0000%00:00 (00:00)
194 Runestone Keeper Mar 2, 2015 $9.99N/A (N/A)200,000 .. 500,0000%00:00 (00:00)
195 The Descendant Mar 24, 2016 $14.99N/A (N/A/59%)20,000 .. 50,0000.43%03:47 (01:15)
196 Ember Sep 9, 2016 $9.99N/A (N/A/70%)50,000 .. 100,0000%00:00 (00:00)
197 Total War: ATTILA Feb 17, 2015 $44.99N/A (N/A/80%)1,000,000 .. 2,000,0000%00:00 (00:00)
198 Sinless + OST Dec 16, 2015 $4.99N/A (N/A)50,000 .. 100,0000%00:00 (00:00)
199 Worms W.M.D Aug 23, 2016 $7.49N/A (N/A/79%)200,000 .. 500,0000%00:00 (00:00)
200 Man O' War: Corsair - Warhammer Naval Battles Apr 19, 2017 $7.49N/A (N/A)20,000 .. 50,0000%00:00 (00:00)
201 Anna's Quest Jul 2, 2015 $19.99N/A (N/A/74%)200,000 .. 500,0000%00:00 (00:00)
202 Agent Awesome Feb 17, 2015 $1.99N/A (N/A)200,000 .. 500,0000%00:00 (00:00)
203 Devil May Cry 4 Special Edition Jun 23, 2015 $24.99N/A (N/A)500,000 .. 1,000,0000%00:00 (00:00)
204 King's Quest Jul 28, 2015 FreeN/A (N/A)200,000 .. 500,0000%00:00 (00:00)
205 Company of Heroes 2 Jun 25, 2013 $19.99N/A (N/A/80%)5,000,000 .. 10,000,0002.19%04:15 (05:24)
206 Brothers - A Tale of Two Sons Sep 3, 2013 $14.99N/A (N/A/90%)1,000,000 .. 2,000,0000%00:00 (00:00)
207 Stronghold Crusader 2 Sep 22, 2014 $3.99N/A (N/A/65%)1,000,000 .. 2,000,0000%00:00 (00:00)
208 Brutal Legend Feb 26, 2013 $4.94N/A (N/A/80%)2,000,000 .. 5,000,0000%00:00 (00:00)
209 Shadow Warrior Sep 26, 2013 $39.99N/A (N/A/73%)2,000,000 .. 5,000,0000%00:00 (00:00)
210 Full Mojo Rampage May 8, 2014 $12.99N/A (N/A)200,000 .. 500,0000%00:00 (00:00)
211 Worms Clan Wars Aug 15, 2013 $4.99N/A (N/A/73%)500,000 .. 1,000,0000%00:00 (00:00)
212 LOST PLANET 3 Aug 26, 2013 $24.99N/A (N/A)200,000 .. 500,0002.78%00:07 (00:02)
213 Resident Evil Revelations / Biohazard Revelations May 20, 2013 $29.99N/A (N/A/77%)500,000 .. 1,000,0001.45%00:22 (00:07)
214 Age of Wonders III Mar 31, 2014 $7.49N/A (N/A/80%)1,000,000 .. 2,000,0000.37%00:05 (00:01)
215 Wargame: Airland Battle May 29, 2013 $19.99N/A (N/A/80%)500,000 .. 1,000,0000%00:00 (00:00)
216 Galactic Civilizations III May 14, 2015 $29.99N/A (N/A/81%)500,000 .. 1,000,0000%00:00 (00:00)
217 Homefront: The Revolution May 17, 2016 $29.99N/A (N/A/54%)500,000 .. 1,000,0000%00:00 (00:00)
218 Full Throttle Remastered Apr 18, 2017 $14.99N/A (N/A/77%)100,000 .. 200,0000%00:00 (00:00)
219 Ace of Spades: Battle Builder N/AN/A (N/A)1,000,000 .. 2,000,0000%00:00 (00:00)
220 Deadfall Adventures Nov 15, 2013 $19.99N/A (N/A/53%)100,000 .. 200,0000%00:00 (00:00)
221 Super House of Dead Ninjas Feb 18, 2013 $6.99N/A (N/A/79%)100,000 .. 200,0000%00:00 (00:00)
222 Slingshot people Oct 20, 2018 $0.59N/A (N/A)200,000 .. 500,0000%00:00 (00:00)
223 Antihero Jul 10, 2017 $14.99N/A (N/A/81%)50,000 .. 100,0000%00:00 (00:00)
224 Cavern Escape Extremely Hard game!!! Feb 20, 2017 $3.99N/A (N/A)200,000 .. 500,0000%00:00 (00:00)
225 Forgotten Heroes Aug 12, 2016 $0.99N/A (N/A)50,000 .. 100,0000%00:00 (00:00)
226 The Butterfly Sign Dec 13, 2016 $4.99N/A (N/A)200,000 .. 500,0000%00:00 (00:00)
227 The Disney Afternoon Collection Apr 18, 2017 $19.99N/A (N/A)20,000 .. 50,0000%00:00 (00:00)
228 ICEY Nov 17, 2016 $10.99N/A (N/A/84%)500,000 .. 1,000,0000%00:00 (00:00)
229 Merger 3D Sep 29, 2016 $2.99N/A (N/A)200,000 .. 500,0000%00:00 (00:00)
230 Steel Invaders Nov 23, 2016 $0.99N/A (N/A)100,000 .. 200,0000%00:00 (00:00)
231 TAIKU MANSION Feb 13, 2017 $0.99N/A (N/A)100,000 .. 200,0000%00:00 (00:00)
232 Ultimate General: Civil War Jul 14, 2017 $29.99N/A (N/A)100,000 .. 200,0000%00:00 (00:00)
233 8-Bit Invaders! Dec 16, 2016 $7.49N/A (N/A)20,000 .. 50,0000%00:00 (00:00)
234 911 Operator Feb 24, 2017 $14.99N/A (N/A/68%)200,000 .. 500,0002.17%01:35 (00:31)
235 Rusty Lake: Roots Oct 20, 2016 $2.99N/A (N/A/75%)100,000 .. 200,0000%00:00 (00:00)
236 Carmageddon: Max Damage Oct 27, 2016 $4.24N/A (N/A)200,000 .. 500,0000%00:00 (00:00)
237 Ballistic Protection Oct 12, 2016 $0.99N/A (N/A)200,000 .. 500,0000%00:00 (00:00)
238 Neon Space 2 Jul 26, 2016 $4.99N/A (N/A)50,000 .. 100,0000%00:00 (00:00)
239 Battlefleet Gothic: Armada Apr 21, 2016 $6.79N/A (N/A/77%)200,000 .. 500,0000%00:00 (00:00)
240 The Surge May 15, 2017 $19.99N/A (N/A/72%)200,000 .. 500,0000%00:00 (00:00)
241 Total War: WARHAMMER May 24, 2016 $14.99N/A (N/A/86%)1,000,000 .. 2,000,0000%00:00 (00:00)
242 Thea: The Awakening Nov 20, 2015 $19.99N/A (N/A/73%)100,000 .. 200,0000%00:00 (00:00)
243 Savage Resurrection Aug 18, 2016 N/AN/A (N/A)50,000 .. 100,0000%00:00 (00:00)
244 80 Days Sep 28, 2015 $12.99N/A (N/A/84%)100,000 .. 200,0000%00:00 (00:00)
245 Kingdom: Classic Oct 21, 2015 $4.99N/A (N/A/74%)1,000,000 .. 2,000,0000%00:00 (00:00)
246 Dead Island: Riptide Definitive Edition May 31, 2016 $19.99N/A (N/A)200,000 .. 500,0000%00:00 (00:00)
247 Halcyon 6: Starbase Commander Sep 8, 2016 $14.99N/A (N/A/71%)100,000 .. 200,0000%00:00 (00:00)
248 The Silent Age May 29, 2015 $9.99N/A (N/A)200,000 .. 500,0000%00:00 (00:00)
249 Tap Heroes Jun 5, 2015 $2.99N/A (N/A)200,000 .. 500,0000%00:00 (00:00)
250 Space Run Galaxy Jun 17, 2016 $19.99N/A (N/A/75%)100,000 .. 200,0000%00:00 (00:00)
251 Portal Knights May 18, 2017 $19.99N/A (N/A/72%)500,000 .. 1,000,0001.43%00:49 (00:16)
252 Curious Expedition Sep 2, 2016 $14.99N/A (N/A)200,000 .. 500,0000%00:00 (00:00)
253 Anno 2205 Nov 2, 2015 $39.99N/A (N/A/72%)200,000 .. 500,0000%00:00 (00:00)
254 Goliath May 12, 2016 $11.99N/A (N/A/57%)20,000 .. 50,0000%00:00 (00:00)
255 Putrefaction Aug 7, 2015 $0.99N/A (N/A)50,000 .. 100,0000%00:00 (00:00)
256 Unholy Heights Aug 16, 2013 $2.39N/A (N/A)100,000 .. 200,0000%00:00 (00:00)
257 Bionic Dues Oct 8, 2013 $9.99N/A (N/A/71%)200,000 .. 500,0000%00:00 (00:00)
258 The Wolf Among Us Oct 11, 2013 $14.99N/A (N/A/85%)1,000,000 .. 2,000,0000%00:00 (00:00)
259 Castlevania: Lords of Shadow 2 Feb 25, 2014 $39.99N/A (N/A/58%)200,000 .. 500,0000%00:00 (00:00)
260 Wargame: Red Dragon Apr 17, 2014 $29.99N/A (N/A/78%)500,000 .. 1,000,0004.76%09:45 (06:29)
261 Goodbye Deponia Oct 17, 2013 $12.99N/A (N/A/80%)200,000 .. 500,0000%00:00 (00:00)
262 INFRA Jan 15, 2016 $29.99N/A (N/A)20,000 .. 50,0000%00:00 (00:00)
263 Middle-earth: Shadow of Mordor Sep 30, 2014 $19.99N/A (N/A/84%)2,000,000 .. 5,000,0000.46%14:23 (04:47)
264 Castlevania: Lords of Shadow – Ultimate Edition Aug 27, 2013 $29.99N/A (N/A)200,000 .. 500,0000%00:00 (00:00)
265 Memoria Aug 29, 2013 $1.99N/A (N/A/79%)200,000 .. 500,0000%00:00 (00:00)
266 Mad Max Sep 1, 2015 $19.99N/A (N/A/73%)2,000,000 .. 5,000,0000.91%36:44 (12:14)
267 Men of War: Assault Squad 2 May 15, 2014 $29.99N/A (N/A/68%)500,000 .. 1,000,0006.52%02:15 (02:10)
268 Warhammer: End Times - Vermintide Oct 23, 2015 $7.49N/A (N/A/79%)1,000,000 .. 2,000,0001.35%04:51 (01:37)
269 Tropico 5 May 23, 2014 $19.99N/A (N/A/75%)1,000,000 .. 2,000,0000%00:00 (00:00)
270 Blood Bowl 2 Sep 22, 2015 $4.99N/A (N/A/76%)200,000 .. 500,0007.69%00:59 (00:19)
271 Plague Inc: Evolved Feb 18, 2016 $14.99N/A (N/A)1,000,000 .. 2,000,0001.96%01:48 (01:11)
272 Dreamfall Chapters Jul 21, 2017 $24.99N/A (N/A/71%)200,000 .. 500,0000%00:00 (00:00)
273 Assassin's Creed 2 Deluxe Edition Mar 9, 2010 $6.79N/A (N/A/86%)1,000,000 .. 2,000,0001.27%00:01 (00:00)
274 GRUZCHIK Mar 10, 2017 $0.99N/A (N/A)50,000 .. 100,0000%00:00 (00:00)
275 Crysis Warhead Sep 17, 2008 $19.99N/A (N/A/84%)1,000,000 .. 2,000,0000%00:00 (00:00)
276 State of Anarchy: Master of Mayhem Mar 31, 2017 $2.99N/A (N/A)100,000 .. 200,0000%00:00 (00:00)
277 Sniper: Ghost Warrior Jun 24, 2010 $1.19N/A (N/A/55%)500,000 .. 1,000,0001.89%00:47 (00:15)
278 Shadows 2: Perfidia Mar 24, 2017 $9.99N/A (N/A)200,000 .. 500,0000%00:00 (00:00)
279 Command & Conquer: Red Alert 3 Oct 28, 2008 $19.99N/A (N/A/82%)500,000 .. 1,000,0000%00:00 (00:00)
280 Lost Base Escape Jan 23, 2017 $0.99N/A (N/A)100,000 .. 200,0000%00:00 (00:00)
281 Batman: Arkham Asylum Game of the Year Edition Mar 26, 2010 $19.99N/A (N/A/91%)2,000,000 .. 5,000,0000.7%02:51 (00:57)
282 Battle Bruise Apr 22, 2017 $0.99N/A (N/A)20,000 .. 50,0000%00:00 (00:00)
283 Warhammer 40,000: Dawn of War II Chaos Rising Mar 10, 2010 $4.99N/A (N/A/85%)2,000,000 .. 5,000,0000%00:00 (00:00)
284 Fluffy Jan 13, 2017 $0.99N/A (N/A)100,000 .. 200,0000%00:00 (00:00)
285 RIFT Mar 1, 2011 FreeN/A (N/A/84%)2,000,000 .. 5,000,0000%00:00 (00:00)
286 Minecraft: Story Mode - Season Two Jul 11, 2017 N/AN/A (N/A)50,000 .. 100,0000%00:00 (00:00)
287 Resident Evil 5/ Biohazard 5 Sep 15, 2009 $19.99N/A (N/A/86%)1,000,000 .. 2,000,0002.56%00:48 (00:21)
288 Marvel's Guardians of the Galaxy: The Telltale Series Apr 18, 2017 N/AN/A (N/A/78%)100,000 .. 200,0000%00:00 (00:00)
289 Home Wars Jun 13, 2017 $9.99N/A (N/A)20,000 .. 50,0000%00:00 (00:00)
290 Aliens vs. Predator Feb 16, 2010 $14.99N/A (N/A/68%)1,000,000 .. 2,000,0000%00:00 (00:00)
291 Worms Reloaded Aug 26, 2010 $3.99N/A (N/A/79%)500,000 .. 1,000,0000%00:00 (00:00)
292 Yonder: The Cloud Catcher Chronicles Jul 18, 2017 $24.99N/A (N/A/70%)100,000 .. 200,0000%00:00 (00:00)
293 Assassin's Creed: Director's Cut Edition Apr 9, 2008 $6.79N/A (N/A/79%)500,000 .. 1,000,0000%00:00 (00:00)
294 Soda Dungeon Feb 6, 2017 FreeN/A (N/A)500,000 .. 1,000,0003.45%00:02 (00:00)
295 Command & Conquer 3: Tiberium Wars Nov 13, 2009 $14.99N/A (N/A/85%)500,000 .. 1,000,0000%00:00 (00:00)
296 Steampunk Syndicate Apr 13, 2017 $1.99N/A (N/A)50,000 .. 100,0000%00:00 (00:00)
297 Tom Clancy's Rainbow Six Vegas 2 Apr 16, 2008 $9.99N/A (N/A/78%)500,000 .. 1,000,0000%00:00 (00:00)
298 ZombieCarz Dec 7, 2016 $3.99N/A (N/A)200,000 .. 500,0000%00:00 (00:00)
299 Command & Conquer 3: Kane's Wrath Nov 13, 2009 $19.99N/A (N/A/77%)200,000 .. 500,0000%00:00 (00:00)
300 Moccasin Feb 21, 2017 $0.99N/A (N/A)100,000 .. 200,0000%00:00 (00:00)
301 Heroes of Might & Magic V: Tribes of the East Oct 10, 2008 $9.99N/A (N/A/70%)200,000 .. 500,0000%00:00 (00:00)
302 Kingdoms and Castles Jul 20, 2017 $9.99N/A (N/A)500,000 .. 1,000,0003.13%00:01 (00:00)
303 STAR WARS - The Force Unleashed Ultimate Sith Edition Dec 15, 2009 $19.99N/A (N/A/65%)1,000,000 .. 2,000,0000%00:00 (00:00)
304 Crisis in the Kremlin Mar 20, 2017 $4.99N/A (N/A)200,000 .. 500,0000%00:00 (00:00)
305 Warhammer 40,000: Dawn of War II Feb 18, 2009 $4.99N/A (N/A/85%)2,000,000 .. 5,000,0000%00:00 (00:00)
306 Fight or Die Jan 6, 2017 $3.99N/A (N/A)20,000 .. 50,0000%00:00 (00:00)

Tags over time:

Access restricted.

This feature is only available to users with special access rights. Sorry.

If you want to proceed, you need to register or log in first and then back Steam Spy on Patreon. Look for Indie or Pro pledge.

Don't forget to use the same email as on Steam Spy!

Owners of this game also own:

Access restricted.

This feature is only available to users with special access rights. Sorry.

If you want to proceed, you need to register or log in first and then back Steam Spy on Patreon. Look for Indie or Pro pledge.

Don't forget to use the same email as on Steam Spy!

Playtime distribution:

Access restricted.

This feature is only available to users with special access rights. Sorry.

If you want to proceed, you need to register or log in first and then back Steam Spy on Patreon. Look for Indie or Pro pledge.

Don't forget to use the same email as on Steam Spy!

Playtime (2 weeks):

Access restricted.

This feature is only available to users with special access rights. Sorry.

If you want to proceed, you need to register or log in first and then back Steam Spy on Patreon. Look for Indie or Pro pledge.

Don't forget to use the same email as on Steam Spy!

User reviews:

Login required.

Please register or log in to see this information.